Flight Track Log - Related Links

Times and Time Zones

All times are in EDT time to prevent confusion due to time zone crossing. See the KAL471 flight status page for this flight to view local times or setup timezone preferences in your user account.

Time Position Orientation Groundspeed Altitude Reporting Facility
EDT Latitude Longitude Course Direction KTS MPH feet Rate Location/Type
Mon 06:04:00 AM 37.2567 125.9782 241° Southwest  Level Estimated
Mon 06:04:30 AM 37.4390 126.1510 240° Southwest 274 315 9,700  Level FlightAware ADS-B
Mon 06:05:00 AM 37.2033 125.8605 240° Southwest  Level Estimated
Mon 06:05:00 AM 37.4090 126.1410 195° South 283 326 9,700  Level FlightAware ADS-B
Mon 06:05:01 AM 37.4040 126.1530 118° Southeast 306 352 10,400 2,889 Climbing FlightAware ADS-B
Mon 06:05:27 AM 37.3720 126.1880 139° Southeast 333 383 11,000 1,500 Climbing FlightAware ADS-B
Mon 06:06:05 AM 37.3310 126.2460 132° Southeast 365 420 12,000 1,889 Climbing FlightAware ADS-B
Mon 06:06:21 AM 37.3080 126.2720 138° Southeast 366 421 12,700 2,400 Climbing FlightAware ADS-B
Mon 06:06:50 AM 37.2680 126.3000 151° Southeast 365 420 13,800 2,743 Climbing FlightAware ADS-B
Mon 06:07:31 AM 37.2050 126.3370 155° Southeast 361 415 15,900 3,120 Climbing FlightAware ADS-B
Mon 06:08:05 AM 37.1540 126.3680 154° Southeast 342 394 17,700 2,314 Climbing FlightAware ADS-B
Mon 06:08:41 AM 37.0930 126.4040 155° Southeast 360 414 18,600 1,371 Climbing FlightAware ADS-B
Mon 06:09:15 AM 37.0410 126.4350 155° Southeast 377 434 19,300 988 Climbing FlightAware ADS-B
Mon 06:10:06 AM 36.9680 126.4790 154° Southeast 392 451 20,000 483 Climbing FlightAware ADS-B
Mon 06:10:42 AM 36.9180 126.5100 154° Southeast 392 451 20,000  Level FlightAware ADS-B
Mon 06:11:18 AM 36.8680 126.5400 154° Southeast 392 451 20,000  Level FlightAware ADS-B
Mon 06:12:06 AM 36.8010 126.5810 154° Southeast 392 451 20,000  Level FlightAware ADS-B
Mon 06:12:42 AM 36.7510 126.6110 154° Southeast 392 451 20,000  Level FlightAware ADS-B
Mon 06:13:18 AM 36.7010 126.6410 154° Southeast 392 451 20,000 229 Level FlightAware ADS-B
Mon 06:15:00 AM 36.6139 126.4383 242° Southwest  Level Estimated
Mon 06:16:00 AM 36.5625 126.3192 242° Southwest  Level Estimated
Mon 06:17:00 AM 36.5110 126.2003 242° Southwest  Level Estimated
Mon 06:18:00 AM 36.4594 126.0816 242° Southwest  Level Estimated
Mon 06:19:00 AM 36.4076 125.9631 242° Southwest  Level Estimated
Mon 06:20:00 AM 36.3557 125.8447 241° Southwest  Level Estimated
Mon 06:21:00 AM 36.3037 125.7264 241° Southwest  Level Estimated
Mon 06:22:00 AM 36.2517 125.6083 241° Southwest  Level Estimated
Mon 06:23:00 AM 36.1994 125.4904 241° Southwest  Level Estimated
Mon 06:24:00 AM 36.1471 125.3726 241° Southwest  Level Estimated
Mon 06:25:00 AM 36.0947 125.2550 241° Southwest  Level Estimated
Mon 06:26:00 AM 36.0421 125.1375 241° Southwest  Level Estimated
Mon 06:27:00 AM 35.9894 125.0202 241° Southwest  Level Estimated
Mon 06:28:00 AM 35.9366 124.9031 241° Southwest  Level Estimated
Mon 06:29:00 AM 35.8837 124.7861 241° Southwest  Level Estimated
Mon 06:30:00 AM 35.8307 124.6692 241° Southwest  Level Estimated
Mon 06:31:00 AM 35.7776 124.5525 241° Southwest  Level Estimated
Mon 06:32:00 AM 35.7243 124.4360 241° Southwest  Level Estimated
Mon 06:33:00 AM 35.6710 124.3196 241° Southwest  Level Estimated
Mon 06:34:00 AM 35.6175 124.2034 241° Southwest  Level Estimated
Mon 06:35:00 AM 35.5639 124.0874 240° Southwest  Level Estimated
Mon 06:36:00 AM 35.5102 123.9715 240° Southwest  Level Estimated
Mon 06:37:00 AM 35.4564 123.8557 240° Southwest  Level Estimated
Mon 06:38:00 AM 35.4025 123.7401 240° Southwest  Level Estimated
Mon 06:39:00 AM 35.3485 123.6247 240° Southwest  Level Estimated
Mon 06:40:00 AM 35.2944 123.5094 240° Southwest  Level Estimated
Mon 06:41:00 AM 35.2401 123.3943 240° Southwest  Level Estimated
Mon 06:42:00 AM 35.1858 123.2793 240° Southwest  Level Estimated
Mon 06:43:00 AM 35.1313 123.1645 240° Southwest  Level Estimated
Mon 06:44:00 AM 35.0768 123.0498 240° Southwest  Level Estimated
Mon 06:45:00 AM 35.0221 122.9353 240° Southwest  Level Estimated
Mon 06:46:00 AM 34.9673 122.8210 240° Southwest  Level Estimated
Mon 06:47:00 AM 34.9124 122.7067 240° Southwest  Level Estimated
Mon 06:48:00 AM 34.8574 122.5927 240° Southwest  Level Estimated
Mon 06:49:00 AM 34.8023 122.4788 240° Southwest  Level Estimated
Mon 06:50:00 AM 34.7471 122.3650 239° Southwest  Level Estimated
Mon 06:51:00 AM 34.6918 122.2514 239° Southwest  Level Estimated
Mon 06:52:00 AM 34.6364 122.1380 239° Southwest  Level Estimated
Mon 06:53:00 AM 34.5809 122.0247 239° Southwest  Level Estimated
Mon 06:54:00 AM 34.5252 121.9115 239° Southwest  Level Estimated
Mon 06:55:00 AM 34.4695 121.7986 239° Southwest  Level Estimated
Mon 06:56:00 AM 34.4137 121.6857 239° Southwest  Level Estimated
Mon 06:57:00 AM 34.3577 121.5730 239° Southwest  Level Estimated
Mon 06:58:00 AM 34.3017 121.4605 239° Southwest  Level Estimated
Mon 06:59:00 AM 34.2455 121.3481 239° Southwest  Level Estimated
Mon 07:00:00 AM 34.1893 121.2358 239° Southwest  Level Estimated
Mon 07:01:00 AM 34.1329 121.1238 239° Southwest  Level Estimated
Mon 07:02:00 AM 34.0765 121.0118 239° Southwest  Level Estimated
Mon 07:03:00 AM 34.0199 120.9000 239° Southwest  Level Estimated
Mon 07:04:00 AM 33.9633 120.7884 239° Southwest  Level Estimated
Mon 07:05:00 AM 33.9065 120.6769 239° Southwest  Level Estimated
Mon 07:06:00 AM 33.8497 120.5656 238° Southwest  Level Estimated
Mon 07:07:00 AM 33.7927 120.4544 238° Southwest  Level Estimated
Mon 07:08:00 AM 33.7357 120.3433 238° Southwest  Level Estimated
Mon 07:09:00 AM 33.6785 120.2324 238° Southwest  Level Estimated
Mon 07:10:00 AM 33.6213 120.1217 238° Southwest  Level Estimated
Mon 07:11:00 AM 33.5639 120.0110 238° Southwest  Level Estimated
Mon 07:12:00 AM 33.5065 119.9006 238° Southwest  Level Estimated
Mon 07:13:00 AM 33.4489 119.7903 238° Southwest  Level Estimated
Mon 07:14:00 AM 33.3913 119.6801 238° Southwest  Level Estimated
Mon 07:14:22 AM 31.2860 122.3860 238° Southwest 452 520 34,100  Level FlightAware ADS-B
Mon 07:15:00 AM 31.2690 122.2940 258° West 454 522 34,100  Level FlightAware ADS-B
Mon 07:15:34 AM 31.2530 122.2100 257° West 454 522 34,100  Level FlightAware ADS-B
Mon 07:16:05 AM 31.2410 122.1460 258° West 455 524 34,100  Level FlightAware ADS-B
Mon 07:16:40 AM 31.2240 122.0550 258° West 456 525 34,100  Level FlightAware ADS-B
Mon 07:17:20 AM 31.2030 121.9580 256° West 454 522 34,100  Level FlightAware ADS-B
Mon 07:17:40 AM 31.1820 121.9210 236° Southwest 450 518 34,100  Level FlightAware ADS-B
Mon 07:18:13 AM 31.1390 121.8740 223° Southwest 449 517 34,100  Level FlightAware ADS-B
Mon 07:18:20 AM 31.1170 121.8630 203° Southwest 434 499 34,100  Level FlightAware ADS-B
Mon 07:18:43 AM 31.0780 121.8270 218° Southwest 449 517 34,100  Level FlightAware ADS-B
Mon 07:19:13 AM 31.0400 121.7650 234° Southwest 454 522 34,100  Level FlightAware ADS-B
Mon 07:19:43 AM 31.0170 121.6990 248° West 456 525 34,100  Level FlightAware ADS-B
Mon 07:20:18 AM 30.9910 121.6200 249° West 459 528 34,100  Level FlightAware ADS-B
Mon 07:20:53 AM 30.9760 121.5310 259° West 463 533 34,100  Level FlightAware ADS-B
Mon 07:21:28 AM 30.9670 121.4460 263° West 462 532 34,100  Level FlightAware ADS-B
Mon 07:22:03 AM 30.9550 121.3620 261° West 461 531 34,100  Level FlightAware ADS-B
Mon 07:22:38 AM 30.9340 121.2760 254° West 460 529 34,100  Level FlightAware ADS-B
Mon 07:23:18 AM 30.9100 121.1810 254° West 460 529 34,100  Level FlightAware ADS-B
Mon 07:23:48 AM 30.8930 121.1090 255° West 460 529 34,100  Level FlightAware ADS-B
Mon 07:24:23 AM 30.8730 121.0310 253° West 461 531 34,100  Level FlightAware ADS-B
Mon 07:24:58 AM 30.8520 120.9450 254° West 459 528 34,100  Level FlightAware ADS-B
Mon 07:25:33 AM 30.8320 120.8620 254° West 460 529 34,100  Level FlightAware ADS-B
Mon 07:26:08 AM 30.8100 120.7770 253° West 461 531 34,100  Level FlightAware ADS-B
Mon 07:26:53 AM 30.7840 120.6720 254° West 462 532 34,100  Level FlightAware ADS-B
Mon 07:27:33 AM 30.7550 120.5760 251° West 458 527 34,100  Level FlightAware ADS-B
Mon 07:28:12 AM 30.7210 120.5050 241° Southwest 458 527 34,100  Level FlightAware ADS-B
Mon 07:28:18 AM 30.6830 120.5080 176° South 452 520 34,100  Level FlightAware ADS-B
Mon 07:28:48 AM 30.6300 120.4720 210° Southwest 452 520 34,100  Level FlightAware ADS-B
Mon 07:29:23 AM 30.5660 120.4270 211° Southwest 449 517 34,100  Level FlightAware ADS-B
Mon 07:30:03 AM 30.5020 120.3840 210° Southwest 447 514 34,100  Level FlightAware ADS-B
Mon 07:30:40 AM 30.4470 120.3450 211° Southwest 447 514 34,100  Level FlightAware ADS-B
Mon 07:31:16 AM 30.3920 120.3070 211° Southwest 447 514 34,100  Level FlightAware ADS-B
Mon 07:31:52 AM 30.3380 120.2690 211° Southwest 447 514 34,100  Level FlightAware ADS-B
Mon 07:32:28 AM 30.2840 120.2320 211° Southwest 447 514 34,100  Level FlightAware ADS-B
Mon 07:33:04 AM 30.2300 120.1940 211° Southwest 447 514 34,100  Level FlightAware ADS-B
Mon 07:33:42 AM 30.1720 120.1540 211° Southwest 447 514 34,100  Level FlightAware ADS-B
Mon 07:34:18 AM 30.1180 120.1170 211° Southwest 447 514 34,100  Level FlightAware ADS-B
Mon 07:34:54 AM 30.0640 120.0790 211° Southwest 447 514 34,100  Level FlightAware ADS-B
Mon 07:35:30 AM 30.0100 120.0410 211° Southwest 447 514 34,100  Level FlightAware ADS-B
Mon 07:36:06 AM 29.9550 120.0040 210° Southwest 447 514 34,100  Level FlightAware ADS-B
Mon 07:36:42 AM 29.9010 119.9660 211° Southwest 447 514 34,100  Level FlightAware ADS-B
Mon 07:37:18 AM 29.8470 119.9280 211° Southwest 447 514 34,100  Level FlightAware ADS-B
Mon 07:37:54 AM 29.7930 119.8910 211° Southwest 447 514 34,100  Level FlightAware ADS-B
Mon 07:38:30 AM 29.7380 119.8530 211° Southwest 447 514 34,100  Level FlightAware ADS-B
Mon 07:39:06 AM 29.6840 119.8160 211° Southwest 447 514 34,100  Level FlightAware ADS-B
Mon 07:39:42 AM 29.6300 119.7780 211° Southwest 447 514 34,100  Level FlightAware ADS-B
Mon 07:42:00 AM 29.5235 119.5184 245° Southwest  Level Estimated
Mon 07:43:00 AM 29.4770 119.4057 245° Southwest  Level Estimated
Mon 07:43:29 AM 29.2830 119.0480 245° Southwest 455 524 34,100  Level FlightAware ADS-B
Mon 07:44:06 AM 29.2350 118.9890 227° Southwest 455 524 34,100  Level FlightAware ADS-B
Mon 07:44:57 AM 29.1610 118.8880 230° Southwest 458 527 34,100  Level FlightAware ADS-B
Mon 07:45:39 AM 29.1210 118.8170 237° Southwest 458 527 34,100  Level FlightAware ADS-B
Mon 07:46:17 AM 29.0830 118.7510 237° Southwest 458 527 34,100  Level FlightAware ADS-B
Mon 07:46:53 AM 29.0480 118.6890 237° Southwest 458 527 34,100  Level FlightAware ADS-B
Mon 07:47:29 AM 29.0130 118.6270 237° Southwest 458 527 34,100  Level FlightAware ADS-B
Mon 07:48:05 AM 28.9770 118.5650 236° Southwest 458 527 34,100  Level FlightAware ADS-B
Mon 07:48:41 AM 28.9420 118.5030 237° Southwest 458 527 34,100  Level FlightAware ADS-B
Mon 07:49:17 AM 28.9070 118.4400 238° Southwest 458 527 34,100  Level FlightAware ADS-B
Mon 07:49:53 AM 28.8710 118.3780 236° Southwest 458 527 34,100  Level FlightAware ADS-B
Mon 07:50:29 AM 28.8360 118.3160 237° Southwest 458 527 34,100  Level FlightAware ADS-B
Mon 07:51:17 AM 28.6700 118.1990 212° Southwest 447 514 34,100  Level FlightAware ADS-B
Mon 07:51:53 AM 28.6270 118.1470 227° Southwest 447 514 34,100  Level FlightAware ADS-B
Mon 07:52:29 AM 28.5840 118.0940 227° Southwest 447 514 34,100  Level FlightAware ADS-B
Mon 07:53:06 AM 28.5400 118.0400 227° Southwest 447 514 34,100  Level FlightAware ADS-B
Mon 07:53:42 AM 28.4970 117.9870 227° Southwest 447 514 34,100  Level FlightAware ADS-B
Mon 07:54:19 AM 28.4520 117.9330 227° Southwest 447 514 34,100  Level FlightAware ADS-B
Mon 07:54:55 AM 28.4090 117.8800 227° Southwest 447 514 34,100  Level FlightAware ADS-B
Mon 07:55:30 AM 28.3670 117.8290 227° Southwest 447 514 34,100  Level FlightAware ADS-B
Mon 07:56:07 AM 28.3230 117.7750 227° Southwest 447 514 34,100  Level FlightAware ADS-B
Mon 07:56:43 AM 28.2800 117.7230 227° Southwest 447 514 34,100  Level FlightAware ADS-B
Mon 07:57:19 AM 28.2360 117.6700 227° Southwest 447 514 34,100  Level FlightAware ADS-B
Mon 07:57:55 AM 28.1930 117.6180 227° Southwest 447 514 34,100  Level FlightAware ADS-B
Mon 07:58:31 AM 28.1500 117.5650 227° Southwest 447 514 34,100  Level FlightAware ADS-B
Mon 07:59:07 AM 28.1070 117.5130 227° Southwest 447 514 34,100  Level FlightAware ADS-B
Mon 07:59:43 AM 28.0640 117.4600 227° Southwest 447 514 34,100  Level FlightAware ADS-B
Mon 08:00:20 AM 28.0190 117.4060 227° Southwest 447 514 34,100  Level FlightAware ADS-B
Mon 08:03:00 AM 27.8962 117.1093 245° Southwest  Level Estimated
Mon 08:04:00 AM 27.8500 116.9982 245° Southwest  Level Estimated
Mon 08:05:00 AM 27.8037 116.8872 245° Southwest  Level Estimated
Mon 08:06:00 AM 27.7574 116.7763 245° Southwest  Level Estimated
Mon 08:07:00 AM 27.7109 116.6655 245° Southwest  Level Estimated
Mon 08:08:00 AM 27.6643 116.5548 245° Southwest  Level Estimated
Mon 08:09:00 AM 27.6177 116.4442 245° Southwest  Level Estimated
Mon 08:10:00 AM 27.5710 116.3337 245° Southwest  Level Estimated
Mon 08:11:00 AM 27.5241 116.2232 244° Southwest  Level Estimated
Mon 08:12:00 AM 27.4772 116.1129 244° Southwest  Level Estimated
Mon 08:13:00 AM 27.4302 116.0027 244° Southwest  Level Estimated
Mon 08:14:00 AM 27.3832 115.8925 244° Southwest  Level Estimated
Mon 08:15:00 AM 27.3360 115.7825 244° Southwest  Level Estimated
Mon 08:16:00 AM 27.2887 115.6725 244° Southwest  Level Estimated
Mon 08:17:00 AM 27.2414 115.5627 244° Southwest  Level Estimated
Mon 08:18:00 AM 27.1940 115.4529 244° Southwest  Level Estimated
Mon 08:19:00 AM 27.1465 115.3432 244° Southwest  Level Estimated
Mon 08:20:00 AM 27.0989 115.2336 244° Southwest  Level Estimated
Mon 08:21:00 AM 27.0512 115.1241 244° Southwest  Level Estimated
Mon 08:22:00 AM 27.0034 115.0147 244° Southwest  Level Estimated
Mon 08:23:00 AM 26.9556 114.9054 244° Southwest  Level Estimated
Mon 08:24:00 AM 26.9077 114.7962 244° Southwest  Level Estimated
Mon 08:25:00 AM 26.8596 114.6871 244° Southwest  Level Estimated
Mon 08:25:01 AM 25.7030 114.7160 244° Southwest 470 541 34,100  Level FlightAware ADS-B
Mon 08:25:32 AM 25.6520 114.6720 218° Southwest 470 541 34,300 635 Climbing FlightAware ADS-B
Mon 08:26:26 AM 25.5660 114.6000 217° Southwest 462 532 35,000 462 Climbing FlightAware ADS-B
Mon 08:27:03 AM 25.5120 114.5560 216° Southwest 462 532 35,000 825 Level FlightAware ADS-B
Mon 08:27:46 AM 25.4270 114.4830 218° Southwest 455 524 36,100 815 Climbing FlightAware ADS-B
Mon 08:28:24 AM 25.3630 114.4290 217° Southwest 460 529 36,100  Level FlightAware ADS-B
Mon 08:28:54 AM 25.3130 114.3870 217° Southwest 461 531 36,100  Level FlightAware ADS-B
Mon 08:29:32 AM 25.2470 114.3310 218° Southwest 462 532 36,100  Level FlightAware ADS-B
Mon 08:30:22 AM 25.1600 114.2590 217° Southwest 461 531 36,100  Level FlightAware ADS-B
Mon 08:30:59 AM 25.1010 114.2160 213° Southwest 461 531 36,100  Level FlightAware ADS-B
Mon 08:31:35 AM 25.0450 114.1780 212° Southwest 461 531 36,100  Level FlightAware ADS-B
Mon 08:32:11 AM 24.9900 114.1400 212° Southwest 461 531 36,100  Level FlightAware ADS-B
Mon 08:32:48 AM 24.9330 114.1000 212° Southwest 461 531 36,100  Level FlightAware ADS-B
Mon 08:33:24 AM 24.8780 114.0620 212° Southwest 461 531 36,100  Level FlightAware ADS-B
Mon 08:34:00 AM 24.8220 114.0240 212° Southwest 461 531 36,100  Level FlightAware ADS-B
Mon 08:34:36 AM 24.7670 113.9860 212° Southwest 461 531 36,100  Level FlightAware ADS-B
Mon 08:35:12 AM 24.7120 113.9480 212° Southwest 461 531 36,100  Level FlightAware ADS-B
Mon 08:35:49 AM 24.6550 113.9090 212° Southwest 461 531 36,100  Level FlightAware ADS-B
Mon 08:36:26 AM 24.5980 113.8700 212° Southwest 461 531 36,100  Level FlightAware ADS-B
Mon 08:36:40 AM 24.3870 114.0620 140° Southeast 453 521 36,100  Level FlightAware ADS-B
Mon 08:37:08 AM 24.3320 114.0350 204° Southwest 454 522 36,100  Level FlightAware ADS-B
Mon 08:37:40 AM 24.2760 113.9970 212° Southwest 455 524 36,100  Level FlightAware ADS-B
Mon 08:38:18 AM 24.2080 113.9500 212° Southwest 455 524 36,100  Level FlightAware ADS-B
Mon 08:38:52 AM 24.1470 113.9090 212° Southwest 456 525 36,100  Level FlightAware ADS-B
Mon 08:39:28 AM 24.0840 113.8650 213° Southwest 457 526 36,100  Level FlightAware ADS-B
Mon 08:40:04 AM 24.0190 113.8200 212° Southwest 458 527 36,100  Level FlightAware ADS-B
Mon 08:40:40 AM 23.9540 113.7740 213° Southwest 459 528 36,100  Level FlightAware ADS-B
Mon 08:41:10 AM 23.9000 113.7370 212° Southwest 459 528 36,100  Level FlightAware ADS-B
Mon 08:41:43 AM 23.8410 113.6960 212° Southwest 461 531 36,100  Level FlightAware ADS-B
Mon 08:42:24 AM 23.7660 113.6440 212° Southwest 463 533 36,100  Level FlightAware ADS-B
Mon 08:42:56 AM 23.7090 113.6050 212° Southwest 463 533 36,100  Level FlightAware ADS-B
Mon 08:43:33 AM 23.6420 113.5590 212° Southwest 463 533 36,100  Level FlightAware ADS-B
Mon 08:44:05 AM 23.5860 113.5200 213° Southwest 461 531 36,100  Level FlightAware ADS-B
Mon 08:44:40 AM 23.5190 113.4740 212° Southwest 460 529 36,100  Level FlightAware ADS-B
Mon 08:45:15 AM 23.4580 113.4300 213° Southwest 461 531 36,100  Level FlightAware ADS-B
Mon 08:45:54 AM 23.3870 113.3810 212° Southwest 460 529 36,100  Level FlightAware ADS-B
Mon 08:46:30 AM 23.3230 113.3360 213° Southwest 459 528 36,100  Level FlightAware ADS-B
Mon 08:47:00 AM 23.2690 113.2980 213° Southwest 459 528 36,100  Level FlightAware ADS-B
Mon 08:47:38 AM 23.2020 113.2510 213° Southwest 457 526 36,100  Level FlightAware ADS-B
Mon 08:48:09 AM 23.1480 113.2130 213° Southwest 457 526 36,100  Level FlightAware ADS-B
Mon 08:48:24 AM 23.1210 113.1900 218° Southwest 458 527 36,100  Level FlightAware ADS-B
Mon 08:48:40 AM 23.1010 113.1620 232° Southwest 460 529 36,100  Level FlightAware ADS-B
Mon 08:48:57 AM 23.0860 113.1270 245° Southwest 462 532 36,100  Level FlightAware ADS-B
Mon 08:49:09 AM 23.0810 113.1030 257° West 464 534 36,100  Level FlightAware ADS-B
Mon 08:49:40 AM 23.0840 113.0260 272° West 465 535 36,100  Level FlightAware ADS-B
Mon 08:50:18 AM 23.0900 112.9390 274° West 464 534 36,100  Level FlightAware ADS-B
Mon 08:50:52 AM 23.0950 112.8620 274° West 464 534 36,100  Level FlightAware ADS-B
Mon 08:51:29 AM 23.1010 112.7750 274° West 462 532 36,100  Level FlightAware ADS-B
Mon 08:52:06 AM 23.1070 112.6880 274° West 460 529 36,100  Level FlightAware ADS-B
Mon 08:52:36 AM 23.1110 112.6190 274° West 460 529 36,100  Level FlightAware ADS-B
Mon 08:53:14 AM 23.1170 112.5360 275° West 459 528 36,100  Level FlightAware ADS-B
Mon 08:53:58 AM 23.1150 112.4300 269° West 458 527 36,100  Level FlightAware ADS-B
Mon 08:54:47 AM 23.1040 112.3330 263° West 458 527 36,100  Level FlightAware ADS-B
Mon 08:55:19 AM 23.0960 112.2470 264° West 457 526 36,100  Level FlightAware ADS-B
Mon 08:56:00 AM 23.0870 112.1680 263° West 457 526 36,100  Level FlightAware ADS-B
Mon 08:56:37 AM 23.0790 112.0960 263° West 457 526 36,100  Level FlightAware ADS-B
Mon 08:57:13 AM 23.0710 112.0260 263° West 457 526 36,100  Level FlightAware ADS-B
Mon 08:57:50 AM 23.0630 111.9540 263° West 457 526 36,100  Level FlightAware ADS-B
Mon 08:58:23 AM 23.0530 111.8290 265° West 460 529 36,100  Level FlightAware ADS-B
Mon 08:59:12 AM 23.0410 111.7250 263° West 460 529 36,100  Level FlightAware ADS-B
Mon 08:59:49 AM 23.0330 111.6530 263° West 460 529 36,100  Level FlightAware ADS-B
Mon 09:00:25 AM 23.0250 111.5830 263° West 460 529 36,100  Level FlightAware ADS-B
Mon 09:01:03 AM 23.0170 111.5090 263° West 460 529 36,100  Level FlightAware ADS-B
Mon 09:01:40 AM 23.0090 111.4360 263° West 460 529 36,100  Level FlightAware ADS-B
Mon 09:02:16 AM 23.0010 111.3660 263° West 460 529 36,100  Level FlightAware ADS-B
Mon 09:02:51 AM 22.9930 111.2980 263° West 460 529 36,100  Level FlightAware ADS-B
Mon 09:03:25 AM 22.9860 111.2320 263° West 460 529 36,100  Level FlightAware ADS-B
Mon 09:04:02 AM 22.9770 111.1600 262° West 460 529 36,100  Level FlightAware ADS-B
Mon 09:04:38 AM 22.9700 111.0890 264° West 460 529 36,100  Level FlightAware ADS-B
Mon 09:05:16 AM 22.9610 111.0150 262° West 460 529 36,100  Level FlightAware ADS-B
Mon 09:05:53 AM 22.9530 110.9430 263° West 460 529 36,100  Level FlightAware ADS-B
Mon 09:06:27 AM 22.9450 110.8770 263° West 460 529 36,100  Level FlightAware ADS-B
Mon 09:07:04 AM 22.9370 110.8050 263° West 460 529 36,100  Level FlightAware ADS-B
Mon 09:07:40 AM 22.9290 110.7340 263° West 460 529 36,100  Level FlightAware ADS-B
Mon 09:08:16 AM 22.9210 110.6640 263° West 460 529 36,100 -3 Level FlightAware ADS-B
Mon 09:10:00 AM 22.8530 110.4736 249° West  Level Estimated
Mon 09:11:00 AM 22.8137 110.3639 249° West  Level Estimated
Mon 09:12:00 AM 22.7743 110.2542 249° West  Level Estimated
Mon 09:13:00 AM 22.7348 110.1445 249° West  Level Estimated
Mon 09:14:00 AM 22.6953 110.0350 249° West  Level Estimated
Mon 09:15:00 AM 22.6557 109.9255 249° West  Level Estimated
Mon 09:16:00 AM 22.6160 109.8160 249° West  Level Estimated
Mon 09:17:00 AM 22.5762 109.7067 249° West  Level Estimated
Mon 09:18:00 AM 22.5364 109.5974 248° West  Level Estimated
Mon 09:19:00 AM 22.4965 109.4881 248° West  Level Estimated
Mon 09:20:00 AM 22.4565 109.3789 248° West  Level Estimated
Mon 09:21:00 AM 22.4164 109.2698 248° West  Level Estimated
Mon 09:22:00 AM 22.3763 109.1608 248° West  Level Estimated
Mon 09:23:00 AM 22.3361 109.0518 248° West  Level Estimated
Mon 09:24:00 AM 22.2958 108.9428 248° West  Level Estimated
Mon 09:25:00 AM 22.2555 108.8339 248° West  Level Estimated
Mon 09:26:00 AM 22.2150 108.7251 248° West  Level Estimated
Mon 09:27:00 AM 22.1745 108.6164 248° West  Level Estimated
Mon 09:28:00 AM 22.1340 108.5077 248° West  Level Estimated
Mon 09:29:00 AM 22.0933 108.3991 248° West  Level Estimated
Mon 09:30:00 AM 22.0526 108.2905 248° West  Level Estimated
Mon 09:31:00 AM 22.0119 108.1821 248° West  Level Estimated
Mon 09:32:00 AM 21.9710 108.0736 248° West  Level Estimated
Mon 09:33:00 AM 21.9301 107.9652 248° West  Level Estimated
Mon 09:34:00 AM 21.8891 107.8569 248° West  Level Estimated
Mon 09:35:00 AM 21.8480 107.7487 248° West  Level Estimated
Mon 09:36:00 AM 21.8069 107.6405 248° West  Level Estimated
Mon 09:37:00 AM 21.7656 107.5324 248° West  Level Estimated
Mon 09:38:00 AM 21.7244 107.4243 248° West  Level Estimated
Mon 09:39:00 AM 21.6830 107.3163 248° West  Level Estimated
Mon 09:40:00 AM 21.6416 107.2084 248° West  Level Estimated
Mon 09:41:00 AM 21.6001 107.1005 248° West  Level Estimated
Mon 09:42:00 AM 21.5585 106.9927 248° West  Level Estimated
Mon 09:43:00 AM 21.5169 106.8850 247° West  Level Estimated
Mon 09:44:00 AM 21.4752 106.7773 247° West  Level Estimated
Mon 09:44:52 AM 21.3610 105.7540 247° West 486 559 36,000  Level FlightAware ADS-B
Mon 09:45:00 AM 21.4335 106.6697 247° West  Level Estimated
Mon 09:45:37 AM 21.3030 105.6690 234° Southwest 485 558 36,000  Level FlightAware ADS-B
Mon 09:46:12 AM 21.2560 105.5990 234° Southwest 485 558 36,000  Level FlightAware ADS-B
Mon 09:46:49 AM 21.2080 105.5280 234° Southwest 484 557 36,000  Level FlightAware ADS-B
Mon 09:47:22 AM 21.1640 105.4630 234° Southwest 484 557 36,000  Level FlightAware ADS-B
Mon 09:47:58 AM 21.1160 105.3930 234° Southwest 485 558 36,000  Level FlightAware ADS-B
Mon 09:48:32 AM 21.0720 105.3270 234° Southwest 485 558 36,000  Level FlightAware ADS-B
Mon 09:49:08 AM 21.0230 105.2560 234° Southwest 484 557 36,000  Level FlightAware ADS-B
Mon 09:49:40 AM 20.9830 105.1970 234° Southwest 485 558 36,000  Level FlightAware ADS-B
Mon 09:50:18 AM 20.9380 105.1300 234° Southwest 485 558 36,000  Level FlightAware ADS-B
Mon 09:50:54 AM 20.8980 105.0710 234° Southwest 485 558 36,000  Level FlightAware ADS-B
Mon 09:51:30 AM 20.8570 105.0110 234° Southwest 485 558 36,000  Level FlightAware ADS-B
Mon 09:52:06 AM 20.8170 104.9520 234° Southwest 485 558 36,000  Level FlightAware ADS-B
Mon 09:52:38 AM 20.7460 104.8490 234° Southwest 485 558 36,000  Level FlightAware ADS-B
Mon 09:53:26 AM 20.6920 104.7720 233° Southwest 484 557 36,000  Level FlightAware ADS-B
Mon 09:54:02 AM 20.6500 104.7140 232° Southwest 484 557 36,000  Level FlightAware ADS-B
Mon 09:54:38 AM 20.6090 104.6550 233° Southwest 484 557 36,000  Level FlightAware ADS-B
Mon 09:55:14 AM 20.5680 104.5970 233° Southwest 484 557 36,000  Level FlightAware ADS-B
Mon 09:55:51 AM 20.5250 104.5370 233° Southwest 484 557 36,000  Level FlightAware ADS-B
Mon 09:56:27 AM 20.4840 104.4780 233° Southwest 484 557 36,000  Level FlightAware ADS-B
Mon 09:57:03 AM 20.4430 104.4200 233° Southwest 484 557 36,000  Level FlightAware ADS-B
Mon 09:57:39 AM 20.4020 104.3610 233° Southwest 484 557 36,000  Level FlightAware ADS-B
Mon 09:58:16 AM 20.3590 104.3010 233° Southwest 484 557 36,000  Level FlightAware ADS-B
Mon 09:58:52 AM 20.3180 104.2430 233° Southwest 484 557 36,000  Level FlightAware ADS-B
Mon 09:59:28 AM 20.2770 104.1850 233° Southwest 484 557 36,000  Level FlightAware ADS-B
Mon 10:00:05 AM 20.2340 104.1250 233° Southwest 484 557 36,000  Level FlightAware ADS-B
Mon 10:00:38 AM 19.9880 104.0480 196° South 36,000  Level FlightAware ADS-B
Mon 10:00:51 AM 19.9680 104.0320 217° Southwest 484 557 36,000  Level FlightAware ADS-B
Mon 10:01:23 AM 19.9100 103.9860 217° Southwest 484 557 36,000  Level FlightAware ADS-B
Mon 10:02:20 AM 19.8150 103.9110 217° Southwest 483 556 36,000  Level FlightAware ADS-B
Mon 10:02:57 AM 19.7580 103.8670 216° Southwest 483 556 36,000  Level FlightAware ADS-B
Mon 10:03:33 AM 19.7040 103.8230 217° Southwest 483 556 36,000  Level FlightAware ADS-B
Mon 10:04:09 AM 19.6490 103.7790 217° Southwest 483 556 36,000  Level FlightAware ADS-B
Mon 10:04:45 AM 19.5950 103.7350 218° Southwest 483 556 36,000  Level FlightAware ADS-B
Mon 10:05:22 AM 19.5390 103.6910 217° Southwest 483 556 36,000  Level FlightAware ADS-B
Mon 10:05:53 AM 19.4110 103.5990 214° Southwest 485 558 36,000  Level FlightAware ADS-B
Mon 10:06:33 AM 19.3330 103.5400 216° Southwest 494 568 36,000  Level FlightAware ADS-B
Mon 10:07:13 AM 19.2670 103.4900 216° Southwest 494 568 36,000  Level FlightAware ADS-B
Mon 10:07:43 AM 19.2050 103.4420 216° Southwest 495 570 36,000  Level FlightAware ADS-B
Mon 10:08:18 AM 19.1430 103.3950 216° Southwest 496 571 36,000  Level FlightAware ADS-B
Mon 10:08:58 AM 19.0660 103.3360 216° Southwest 497 572 36,000  Level FlightAware ADS-B
Mon 10:09:28 AM 19.0080 103.2930 215° Southwest 498 573 36,000  Level FlightAware ADS-B
Mon 10:10:03 AM 18.9420 103.2430 216° Southwest 499 574 36,000  Level FlightAware ADS-B
Mon 10:10:43 AM 18.8670 103.1860 216° Southwest 499 574 36,000  Level FlightAware ADS-B
Mon 10:11:18 AM 18.8010 103.1350 216° Southwest 499 574 36,000  Level FlightAware ADS-B
Mon 10:12:07 AM 18.7180 103.0730 215° Southwest 499 574 36,000  Level FlightAware ADS-B
Mon 10:12:41 AM 18.6500 103.0210 216° Southwest 500 575 36,000  Level FlightAware ADS-B
Mon 10:13:18 AM 18.5750 102.9650 215° Southwest 498 573 36,000  Level FlightAware ADS-B
Mon 10:13:48 AM 18.5200 102.9230 216° Southwest 499 574 36,000  Level FlightAware ADS-B
Mon 10:14:24 AM 18.4540 102.8730 216° Southwest 499 574 36,000  Level FlightAware ADS-B
Mon 10:14:58 AM 18.3870 102.8230 215° Southwest 498 573 36,000  Level FlightAware ADS-B
Mon 10:15:33 AM 18.3220 102.7740 216° Southwest 498 573 36,000  Level FlightAware ADS-B
Mon 10:16:11 AM 18.2560 102.7250 215° Southwest 499 574 36,000  Level FlightAware ADS-B
Mon 10:16:43 AM 18.1890 102.6740 216° Southwest 499 574 36,000  Level FlightAware ADS-B
Mon 10:17:18 AM 18.1240 102.6250 216° Southwest 499 574 36,000  Level FlightAware ADS-B
Mon 10:17:53 AM 18.0580 102.5760 215° Southwest 499 574 36,000  Level FlightAware ADS-B
Mon 10:18:23 AM 18.0060 102.5280 221° Southwest 496 571 36,000  Level FlightAware ADS-B
Mon 10:18:58 AM 17.9560 102.4620 231° Southwest 502 578 36,000  Level FlightAware ADS-B
Mon 10:19:33 AM 17.9090 102.3920 235° Southwest 503 579 36,000  Level FlightAware ADS-B
Mon 10:20:09 AM 17.8610 102.3230 234° Southwest 503 579 36,000  Level FlightAware ADS-B
Mon 10:20:44 AM 17.8150 102.2560 234° Southwest 503 579 36,000  Level FlightAware ADS-B
Mon 10:21:15 AM 17.7720 102.1940 234° Southwest 503 579 36,000  Level FlightAware ADS-B
Mon 10:21:54 AM 17.7170 102.1140 234° Southwest 503 579 36,000  Level FlightAware ADS-B
Mon 10:22:29 AM 17.6690 102.0450 234° Southwest 499 574 36,000  Level FlightAware ADS-B
Mon 10:23:03 AM 17.6220 101.9760 234° Southwest 504 580 36,000  Level FlightAware ADS-B
Mon 10:23:45 AM 17.5670 101.8970 234° Southwest 500 575 36,000  Level FlightAware ADS-B
Mon 10:24:18 AM 17.5190 101.8260 235° Southwest 501 577 36,000  Level FlightAware ADS-B
Mon 10:24:53 AM 17.4710 101.7580 234° Southwest 499 574 36,000  Level FlightAware ADS-B
Mon 10:25:38 AM 17.4180 101.6600 240° Southwest 500 575 36,000  Level FlightAware ADS-B
Mon 10:26:15 AM 17.3860 101.5920 244° Southwest 500 575 36,000  Level FlightAware ADS-B
Mon 10:26:56 AM 17.3440 101.5020 244° Southwest 499 574 36,000  Level FlightAware ADS-B
Mon 10:27:32 AM 17.3130 101.4360 244° Southwest 499 574 36,000  Level FlightAware ADS-B
Mon 10:28:08 AM 17.2820 101.3690 244° Southwest 499 574 36,000  Level FlightAware ADS-B
Mon 10:28:47 AM 17.2280 101.2560 243° Southwest 501 577 36,000  Level FlightAware ADS-B
Mon 10:29:24 AM 17.1960 101.1880 244° Southwest 501 577 36,000  Level FlightAware ADS-B
Mon 10:30:00 AM 17.1650 101.1210 244° Southwest 501 577 36,000  Level FlightAware ADS-B
Mon 10:30:36 AM 17.1340 101.0540 244° Southwest 501 577 36,000  Level FlightAware ADS-B
Mon 10:31:15 AM 17.1000 100.9820 244° Southwest 501 577 36,000  Level FlightAware ADS-B
Mon 10:31:52 AM 17.0680 100.9140 244° Southwest 501 577 36,000  Level FlightAware ADS-B
Mon 10:32:23 AM 17.0060 100.7850 243° Southwest 36,000  Level FlightAware ADS-B
Mon 10:32:54 AM 16.9760 100.7240 243° Southwest 406 467 36,000  Level FlightAware ADS-B
Mon 10:33:53 AM 16.9170 100.6010 243° Southwest 502 578 36,000  Level FlightAware ADS-B
Mon 10:34:29 AM 16.8850 100.5340 243° Southwest 502 578 36,000  Level FlightAware ADS-B
Mon 10:35:03 AM 16.8550 100.4720 243° Southwest 502 578 36,000  Level FlightAware ADS-B
Mon 10:35:39 AM 16.8220 100.4060 242° Southwest 502 578 36,000  Level FlightAware ADS-B
Mon 10:36:16 AM 16.7890 100.3380 243° Southwest 502 578 36,000  Level FlightAware ADS-B
Mon 10:36:29 AM 16.7730 100.2460 260° West 496 571 36,000  Level FlightAware ADS-B
Mon 10:37:10 AM 16.7690 100.1680 267° West 496 571 36,000  Level FlightAware ADS-B
Mon 10:37:45 AM 16.7650 100.0970 267° West 496 571 36,000  Level FlightAware ADS-B
Mon 10:38:21 AM 16.7620 100.0240 268° West 496 571 36,000  Level FlightAware ADS-B
Mon 10:38:58 AM 16.7580 99.9490 267° West 496 571 36,000  Level FlightAware ADS-B
Mon 10:39:34 AM 16.7540 99.8750 267° West 496 571 36,000  Level FlightAware ADS-B
Mon 10:40:10 AM 16.7510 99.8020 268° West 496 571 36,000  Level FlightAware ADS-B
Mon 10:40:48 AM 16.7470 99.7250 267° West 496 571 36,000  Level FlightAware ADS-B
Mon 10:41:24 AM 16.7430 99.6520 267° West 496 571 36,000  Level FlightAware ADS-B
Mon 10:41:50 AM 16.7990 99.4840 289° West 36,000  Level FlightAware ADS-B
Mon 10:42:39 AM 16.8030 99.3630 272° West 497 572 36,000  Level FlightAware ADS-B
Mon 10:43:17 AM 16.8060 99.2860 272° West 497 572 36,000  Level FlightAware ADS-B
Mon 10:43:54 AM 16.8090 99.2100 272° West 497 572 36,000  Level FlightAware ADS-B
Mon 10:44:31 AM 16.8110 99.1350 272° West 497 572 36,000  Level FlightAware ADS-B
Mon 10:45:03 AM 16.8150 99.0180 272° West 495 570 36,000  Level FlightAware ADS-B
Mon 10:45:49 AM 16.8160 98.9230 271° West 495 570 36,000  Level FlightAware ADS-B
Mon 10:46:25 AM 16.8180 98.8490 272° West 495 570 36,000  Level FlightAware ADS-B
Mon 10:47:01 AM 16.8190 98.7760 271° West 495 570 36,000  Level FlightAware ADS-B
Mon 10:47:37 AM 16.8200 98.7030 271° West 495 570 36,000  Level FlightAware ADS-B
Mon 10:48:13 AM 16.8210 98.6300 271° West 495 570 36,000  Level FlightAware ADS-B
Mon 10:48:50 AM 16.8220 98.5550 271° West 495 570 36,000  Level FlightAware ADS-B
Mon 10:49:24 AM 16.8240 98.4860 272° West 495 570 36,000  Level FlightAware ADS-B
Mon 10:50:02 AM 16.8250 98.4080 271° West 495 570 36,000  Level FlightAware ADS-B
Mon 10:50:37 AM 16.8260 98.3370 271° West 495 570 36,000  Level FlightAware ADS-B
Mon 10:51:13 AM 16.8270 98.2640 271° West 495 570 36,000  Level FlightAware ADS-B
Mon 10:51:50 AM 16.8290 98.1890 272° West 495 570 36,000  Level FlightAware ADS-B
Mon 10:52:24 AM 16.8300 98.1200 271° West 495 570 36,000  Level FlightAware ADS-B
Mon 10:53:00 AM 16.8310 98.0460 271° West 495 570 36,000  Level FlightAware ADS-B
Mon 10:53:37 AM 16.8320 97.9710 271° West 495 570 36,000  Level FlightAware ADS-B
Mon 10:54:14 AM 16.8330 97.8960 271° West 495 570 36,000  Level FlightAware ADS-B
Mon 10:54:50 AM 16.8350 97.8230 272° West 495 570 36,000  Level FlightAware ADS-B
Mon 10:57:00 AM 16.8464 97.5776 273° West  Level Estimated
Mon 10:58:00 AM 16.8515 97.4643 273° West  Level Estimated
Mon 10:59:00 AM 16.8566 97.3511 273° West  Level Estimated
Mon 11:00:00 AM 16.8616 97.2378 273° West  Level Estimated
Mon 11:01:00 AM 16.8666 97.1245 273° West  Level Estimated
Mon 11:02:00 AM 16.8715 97.0112 273° West  Level Estimated
Mon 11:03:00 AM 16.8763 96.8979 273° West  Level Estimated
Mon 11:04:00 AM 16.8811 96.7846 273° West  Level Estimated
Mon 11:05:00 AM 16.8858 96.6713 273° West  Level Estimated
Mon 11:06:00 AM 16.8904 96.5580 272° West  Level Estimated
Mon 11:07:00 AM 16.8950 96.4447 272° West  Level Estimated
Mon 11:08:00 AM 16.8995 96.3314 272° West  Level Estimated
Mon 11:09:00 AM 16.9040 96.2180 272° West  Level Estimated
Mon 11:10:00 AM 16.9073 96.1332 272° West  Level Estimated
Mon 11:11:00 AM 16.9073 96.1332 159° South  Level Estimated
Mon 11:12:00 AM 16.9073 96.1332 21° North  Level Estimated
Mon 11:13:00 AM 16.9073 96.1332 159° South  Level Estimated
Mon 11:14:00 AM 16.9073 96.1332 21° North  Level Estimated

Login

Don't have an account? Register now (free) for customized features, flight alerts, and more!